createdAt,value
2023-04-05T00:02:11.173Z,99934.78
2023-04-05T00:04:38.910Z,99936.53
2023-04-05T00:07:08.413Z,99938.22
2023-04-05T00:09:36.607Z,99933.09
2023-04-05T00:12:03.498Z,99928.78
2023-04-05T00:14:30.575Z,99928.72
2023-04-05T00:16:57.900Z,99925.22
2023-04-05T00:19:24.945Z,99926.00
2023-04-05T00:21:54.687Z,99930.25
2023-04-05T00:24:21.930Z,99923.31
2023-04-05T00:26:49.004Z,99917.16
2023-04-05T00:29:16.161Z,99923.94
2023-04-05T00:31:43.238Z,99917.81
2023-04-05T00:34:12.339Z,99927.25
2023-04-05T00:36:39.278Z,99925.53
2023-04-05T00:39:06.127Z,99924.69
2023-04-05T00:41:33.150Z,99926.38
2023-04-05T00:44:00.094Z,99922.81
2023-04-05T00:46:27.304Z,99922.75
2023-04-05T00:48:54.320Z,99920.13
2023-04-05T00:51:21.322Z,99919.22
2023-04-05T00:53:48.292Z,99919.16
2023-04-05T00:56:15.413Z,99919.06
2023-04-05T00:58:42.692Z,99921.72
2023-04-05T01:01:22.588Z,99923.41
2023-04-05T01:03:53.844Z,99925.97
2023-04-05T01:06:45.790Z,99927.69
2023-04-05T01:09:51.366Z,99922.47
2023-04-05T01:12:19.077Z,99922.41
2023-04-05T01:14:53.003Z,99922.41
2023-04-05T01:17:22.326Z,99929.16
2023-04-05T01:19:54.415Z,99927.47
2023-04-05T01:22:52.165Z,99936.03
2023-04-05T01:25:37.812Z,99929.03
2023-04-05T01:28:36.932Z,99938.47
2023-04-05T01:31:31.439Z,99934.22
2023-04-05T01:33:59.573Z,99938.53
2023-04-05T01:36:29.329Z,99938.53
2023-04-05T01:38:56.491Z,99939.38
2023-04-05T01:41:23.499Z,99935.88
2023-04-05T01:43:50.490Z,99934.22
2023-04-05T01:46:17.508Z,99940.22
2023-04-05T01:48:44.484Z,99940.22
2023-04-05T01:51:11.651Z,99940.16
2023-04-05T01:53:38.697Z,99935.81
2023-04-05T01:56:06.977Z,99936.50
2023-04-05T01:58:36.917Z,99930.47
2023-04-05T02:01:04.005Z,99937.25
2023-04-05T02:03:30.941Z,99941.44
2023-04-05T02:05:59.059Z,99942.25
2023-04-05T02:08:26.148Z,99940.53
2023-04-05T02:10:53.750Z,99946.47
2023-04-05T02:13:22.389Z,99945.50
2023-04-05T02:15:50.325Z,99946.34
2023-04-05T02:18:22.005Z,99954.88
2023-04-05T02:20:50.468Z,99953.97
2023-04-05T02:23:20.628Z,99950.50
2023-04-05T02:25:47.533Z,99952.97
2023-04-05T02:28:14.564Z,99960.53
2023-04-05T02:30:41.599Z,99961.28
2023-04-05T02:33:10.720Z,99963.69
2023-04-05T02:35:37.769Z,99965.38
2023-04-05T02:38:05.246Z,99973.81
2023-04-05T02:40:34.461Z,99964.28
2023-04-05T02:43:02.036Z,99966.75
2023-04-05T02:45:29.181Z,99967.50
2023-04-05T02:47:58.439Z,99970.00
2023-04-05T02:50:26.739Z,99971.72
2023-04-05T02:52:53.745Z,99972.44
2023-04-05T02:55:21.440Z,99965.56
2023-04-05T02:57:48.498Z,99967.19
2023-04-05T03:00:25.493Z,99967.84
2023-04-05T03:02:54.208Z,99975.44
2023-04-05T03:05:22.724Z,99971.22
2023-04-05T03:07:52.822Z,99972.06
2023-04-05T03:10:26.312Z,99975.44
2023-04-05T03:12:58.849Z,99971.94
2023-04-05T03:15:28.175Z,99976.25
2023-04-05T03:17:57.719Z,99978.00
2023-04-05T03:20:25.293Z,99967.75
2023-04-05T03:22:55.679Z,99972.13
2023-04-05T03:25:28.177Z,99974.78
2023-04-05T03:27:55.637Z,99974.06
2023-04-05T03:30:26.633Z,99975.88
2023-04-05T03:33:01.386Z,99983.63
2023-04-05T03:35:48.644Z,99987.94
2023-04-05T03:38:16.345Z,99993.13
2023-04-05T03:41:06.430Z,99992.38
2023-04-05T03:43:33.912Z,99993.44
2023-04-05T03:46:01.454Z,99999.66
2023-04-05T03:48:30.209Z,100000.66
2023-04-05T03:50:57.430Z,100004.22
2023-04-05T03:53:24.405Z,100009.56
2023-04-05T03:55:55.820Z,100005.44
2023-04-05T03:58:45.379Z,100007.28
2023-04-05T04:01:13.341Z,100013.25
2023-04-05T04:03:40.397Z,100015.88
2023-04-05T04:06:07.885Z,100016.94
2023-04-05T04:08:34.803Z,100018.84
2023-04-05T04:11:01.856Z,100022.41
2023-04-05T04:13:32.630Z,100024.31
2023-04-05T04:16:08.494Z,100026.28
2023-04-05T04:18:58.347Z,100031.69
2023-04-05T04:21:39.645Z,100025.03
2023-04-05T04:24:38.754Z,100036.31
2023-04-05T04:27:35.766Z,100033.88
2023-04-05T04:30:34.961Z,100030.78
2023-04-05T04:33:34.733Z,100024.22
2023-04-05T04:36:13.873Z,100034.75
2023-04-05T04:38:59.542Z,100041.94
2023-04-05T04:41:50.688Z,100045.66
2023-04-05T04:44:37.934Z,100046.72
2023-04-05T04:47:23.008Z,100048.69
2023-04-05T04:50:13.702Z,100042.09
2023-04-05T04:52:40.858Z,100050.00
2023-04-05T04:55:08.880Z,100045.75
2023-04-05T04:57:35.993Z,100041.56
2023-04-05T05:00:07.685Z,100043.53
2023-04-05T05:02:34.847Z,100042.72
2023-04-05T05:05:01.874Z,100045.50
2023-04-05T05:07:30.363Z,100051.00
2023-04-05T05:09:57.501Z,100046.94
2023-04-05T05:12:24.565Z,100050.53
2023-04-05T05:14:51.448Z,100057.50
2023-04-05T05:17:21.039Z,100060.13
2023-04-05T05:19:48.020Z,100061.06
2023-04-05T05:22:14.960Z,100066.41
2023-04-05T05:24:42.630Z,100063.09
2023-04-05T05:27:09.468Z,100064.94
2023-04-05T05:29:36.365Z,100062.50
2023-04-05T05:32:03.326Z,100061.72
2023-04-05T05:34:30.300Z,100071.28
2023-04-05T05:36:58.720Z,100070.63
2023-04-05T05:39:25.996Z,100072.50
2023-04-05T05:41:53.116Z,100079.44
2023-04-05T05:44:20.013Z,100074.28
2023-04-05T05:46:47.152Z,100074.41
2023-04-05T05:49:14.183Z,100077.09
2023-04-05T05:51:41.642Z,100072.00
2023-04-05T05:54:08.523Z,100072.13
2023-04-05T05:56:35.654Z,100072.16
2023-04-05T05:59:02.591Z,100076.63
2023-04-05T06:01:29.558Z,100081.03
2023-04-05T06:03:56.663Z,100080.25
2023-04-05T06:06:23.837Z,100081.97
2023-04-05T06:08:51.538Z,100085.50
2023-04-05T06:11:22.985Z,100088.94
2023-04-05T06:13:52.624Z,100088.16
2023-04-05T06:16:19.725Z,100090.84
2023-04-05T06:18:46.757Z,100086.50
2023-04-05T06:21:14.375Z,100096.00
2023-04-05T06:23:42.123Z,100087.41
2023-04-05T06:26:09.385Z,100083.13
2023-04-05T06:28:36.264Z,100083.25
2023-04-05T06:31:03.251Z,100095.41
2023-04-05T06:33:30.189Z,100095.44
2023-04-05T06:35:57.068Z,100091.16
2023-04-05T06:38:23.966Z,100089.47
2023-04-05T06:40:51.222Z,100088.63
2023-04-05T06:43:18.299Z,100089.50
2023-04-05T06:45:45.241Z,100090.41
2023-04-05T06:48:12.319Z,100095.63
2023-04-05T06:50:40.949Z,100087.81
2023-04-05T06:53:08.121Z,100092.16
2023-04-05T06:55:38.081Z,100093.03
2023-04-05T06:58:05.213Z,100098.22
2023-04-05T07:00:32.483Z,100089.59
2023-04-05T07:02:59.535Z,100087.84
2023-04-05T07:05:26.439Z,100091.31
2023-04-05T07:07:53.493Z,100094.75
2023-04-05T07:10:20.912Z,100093.91
2023-04-05T07:12:47.913Z,100096.50
2023-04-05T07:15:14.918Z,100099.09
2023-04-05T07:17:42.010Z,100093.03
2023-04-05T07:20:09.711Z,100090.44
2023-04-05T07:22:36.624Z,100086.09
2023-04-05T07:25:03.760Z,100089.53
2023-04-05T07:27:31.331Z,100090.34
2023-04-05T07:29:58.378Z,100093.78
2023-04-05T07:32:25.459Z,100094.59
2023-04-05T07:34:52.516Z,100095.38
2023-04-05T07:37:19.552Z,100087.53
2023-04-05T07:39:46.608Z,100097.91
2023-04-05T07:42:13.446Z,100103.97
2023-04-05T07:44:40.474Z,100091.78
2023-04-05T07:47:07.340Z,100095.19
2023-04-05T07:49:34.966Z,100094.25
2023-04-05T07:52:01.905Z,100097.66
2023-04-05T07:54:28.763Z,100094.13
2023-04-05T07:56:57.648Z,100098.44
2023-04-05T07:59:24.786Z,100095.75
2023-04-05T08:02:08.281Z,100105.19
2023-04-05T08:04:39.176Z,100099.06
2023-04-05T08:07:06.420Z,100092.03
2023-04-05T08:09:33.488Z,100092.78
2023-04-05T08:12:01.601Z,100094.44
2023-04-05T08:14:28.818Z,100093.53
2023-04-05T08:16:55.840Z,100090.91
2023-04-05T08:19:22.712Z,100085.63
2023-04-05T08:21:49.613Z,100081.19
2023-04-05T08:24:16.589Z,100080.22
2023-04-05T08:26:44.121Z,100079.34
2023-04-05T08:29:11.349Z,100085.31
2023-04-05T08:31:38.393Z,100086.94
2023-04-05T08:34:06.848Z,100089.53
2023-04-05T08:36:33.871Z,100080.75
2023-04-05T08:39:00.794Z,100079.81
2023-04-05T08:41:33.101Z,100076.28
2023-04-05T08:44:03.597Z,100083.16
2023-04-05T08:46:31.814Z,100074.41
2023-04-05T08:48:58.989Z,100081.25
2023-04-05T08:51:28.801Z,100075.13
2023-04-05T08:53:55.804Z,100074.09
2023-04-05T08:56:27.424Z,100073.97
2023-04-05T08:59:02.585Z,100065.06
2023-04-05T09:01:30.641Z,100064.97
2023-04-05T09:04:01.734Z,100071.81
2023-04-05T09:06:28.846Z,100068.16
2023-04-05T09:08:57.555Z,100072.41
2023-04-05T09:11:24.529Z,100067.06
2023-04-05T09:13:51.490Z,100065.22
2023-04-05T09:16:18.457Z,100063.47
2023-04-05T09:18:45.346Z,100061.63
2023-04-05T09:21:12.294Z,100066.72
2023-04-05T09:23:39.212Z,100067.41
2023-04-05T09:26:22.135Z,100065.38
2023-04-05T09:28:52.261Z,100058.97
2023-04-05T09:31:32.047Z,100061.41
2023-04-05T09:34:02.742Z,100057.81
2023-04-05T09:36:29.753Z,100065.56
2023-04-05T09:39:05.673Z,100062.06
2023-04-05T09:41:33.501Z,100061.03
2023-04-05T09:44:00.695Z,100059.06
2023-04-05T09:46:37.365Z,100062.31
2023-04-05T09:49:07.098Z,100068.38
2023-04-05T09:51:38.304Z,100063.06
2023-04-05T09:54:08.512Z,100066.56
2023-04-05T09:56:37.048Z,100063.06
2023-04-05T09:59:11.890Z,100062.94
2023-04-05T10:01:41.439Z,100057.53
2023-04-05T10:04:08.884Z,100056.47
2023-04-05T10:06:40.431Z,100058.25
2023-04-05T10:09:08.236Z,100057.38
2023-04-05T10:11:36.386Z,100052.91
2023-04-05T10:14:04.636Z,100053.59
2023-04-05T10:16:53.981Z,100055.19
2023-04-05T10:19:29.721Z,100056.72
2023-04-05T10:21:57.131Z,100053.16
2023-04-05T10:24:36.711Z,100057.28
2023-04-05T10:27:17.419Z,100049.72
2023-04-05T10:29:48.310Z,100054.03
2023-04-05T10:32:21.068Z,100056.59
2023-04-05T10:34:57.861Z,100054.66
2023-04-05T10:37:42.607Z,100051.19
2023-04-05T10:40:11.311Z,100040.63
2023-04-05T10:42:43.406Z,100056.44
2023-04-05T10:45:12.328Z,100047.91
2023-04-05T10:47:43.256Z,100043.44
2023-04-05T10:50:11.858Z,100042.28
2023-04-05T10:52:40.811Z,100043.19
2023-04-05T10:55:08.977Z,100042.88
2023-04-05T10:57:36.724Z,100041.00
2023-04-05T14:07:27.638Z,100035.63
2023-04-05T14:09:54.935Z,100039.16
2023-04-05T14:12:25.113Z,100031.44
2023-04-05T14:14:52.090Z,100030.63
2023-04-05T14:17:44.475Z,100032.44
2023-04-05T14:23:02.637Z,100033.44
2023-04-05T14:25:32.956Z,100031.75
2023-04-05T14:28:02.921Z,100041.31
2023-04-05T14:30:29.927Z,100043.13
2023-04-05T14:32:57.031Z,100036.22
2023-04-05T14:35:24.084Z,100040.59
2023-04-05T14:37:51.239Z,100051.91
2023-04-05T14:40:18.112Z,100050.22
2023-04-05T14:42:49.288Z,100049.44
2023-04-05T14:45:18.127Z,100046.94
2023-04-05T14:47:45.078Z,100057.41
2023-04-05T14:50:12.020Z,100056.59
2023-04-05T14:52:40.019Z,100052.34
2023-04-05T14:55:07.441Z,100060.19
2023-04-05T14:57:34.382Z,100063.75
2023-04-05T15:00:01.373Z,100063.78
2023-04-05T15:02:29.471Z,100074.25
2023-04-05T15:05:00.485Z,100068.19
2023-04-05T15:07:27.874Z,100069.09
2023-04-05T15:09:54.815Z,100075.22
2023-04-05T15:12:21.784Z,100070.09
2023-04-05T15:14:52.919Z,100071.88
2023-04-05T15:17:20.532Z,100073.63
2023-04-05T15:19:47.538Z,100077.13
2023-04-05T15:22:15.532Z,100082.41
2023-04-05T15:24:42.870Z,100083.28
2023-04-05T15:27:10.380Z,100084.19
2023-04-05T15:29:37.292Z,100086.84
2023-04-05T15:32:04.328Z,100089.47
2023-04-05T15:34:31.438Z,100083.41
2023-04-05T15:36:58.408Z,100090.38
2023-04-05T15:39:25.422Z,100095.59
2023-04-05T15:41:52.357Z,100093.00
2023-04-05T15:44:19.329Z,100098.22
2023-04-05T15:46:46.632Z,100110.34
2023-04-05T15:49:14.815Z,100109.50
2023-04-05T15:51:44.003Z,100112.94
2023-04-05T15:54:14.193Z,100122.47
2023-04-05T15:56:41.356Z,100119.88
2023-04-05T15:59:08.373Z,100120.72
2023-04-05T16:01:37.305Z,100120.75
2023-04-05T16:04:04.932Z,100127.66
2023-04-05T16:06:32.202Z,100127.63
2023-04-05T16:08:59.634Z,100130.22
2023-04-05T16:11:26.728Z,100133.69
2023-04-05T16:13:53.956Z,100132.81
2023-04-05T16:16:32.569Z,100144.03
2023-04-05T16:19:06.177Z,100148.31
2023-04-05T16:21:33.125Z,100143.09
2023-04-05T16:24:03.885Z,100147.41
2023-04-05T16:26:30.893Z,100153.41
2023-04-05T16:28:58.075Z,100154.25
2023-04-05T16:31:25.013Z,100162.00
2023-04-05T16:33:53.520Z,100163.69
2023-04-05T16:36:20.363Z,100164.50
2023-04-05T16:38:47.646Z,100170.50
2023-04-05T16:41:14.737Z,100177.38
2023-04-05T16:43:41.779Z,100180.78
2023-04-05T16:46:08.753Z,100179.88
2023-04-05T16:48:36.275Z,100180.69
2023-04-05T16:51:04.545Z,100191.00
2023-04-05T16:53:33.418Z,100185.78
2023-04-05T16:56:00.464Z,100187.50
2023-04-05T16:58:27.498Z,100194.34
2023-04-05T17:00:58.784Z,100191.69
2023-04-05T17:03:26.484Z,100193.41
2023-04-05T17:05:53.494Z,100191.59
2023-04-05T17:08:20.453Z,100199.31
2023-04-05T17:10:47.806Z,100198.44
2023-04-05T17:13:18.190Z,100205.28
2023-04-05T17:15:45.374Z,100210.44
2023-04-05T17:18:12.435Z,100219.91
2023-04-05T17:20:39.494Z,100213.75
2023-04-05T17:23:06.480Z,100219.72
2023-04-05T17:25:33.320Z,100217.94
2023-04-05T17:28:00.432Z,100223.06
2023-04-05T17:30:27.761Z,100223.94
2023-04-05T17:32:55.265Z,100218.72
2023-04-05T17:35:22.179Z,100224.66
2023-04-05T17:37:49.252Z,100228.03
2023-04-05T17:40:16.426Z,100225.41
2023-04-05T17:42:43.449Z,100231.38
2023-04-05T17:45:11.508Z,100232.19
2023-04-05T17:47:41.459Z,100235.59
2023-04-05T17:50:08.702Z,100246.75
2023-04-05T17:52:35.533Z,100241.53
2023-04-05T17:55:03.253Z,100240.56
2023-04-05T17:57:30.234Z,100250.81
2023-04-05T17:59:58.662Z,100255.09
2023-04-05T18:02:25.724Z,100249.06
2023-04-05T18:04:52.713Z,100251.66
2023-04-05T18:07:19.582Z,100253.34
2023-04-05T18:09:46.466Z,100247.19
2023-04-05T18:12:13.491Z,100255.00
2023-04-05T18:14:40.406Z,100258.44
2023-04-05T18:17:07.498Z,100261.81
2023-04-05T18:19:34.742Z,100262.66
2023-04-05T18:22:01.616Z,100262.63
2023-04-05T18:24:29.518Z,100264.25
2023-04-05T18:26:57.497Z,100258.19
2023-04-05T18:29:28.484Z,100258.94
2023-04-05T18:31:56.169Z,100262.38
2023-04-05T18:34:23.176Z,100259.66
2023-04-05T18:36:51.108Z,100259.59
2023-04-05T18:39:20.195Z,100255.28
2023-04-05T18:41:47.194Z,100259.44
2023-04-05T18:44:14.288Z,100264.50
2023-04-05T18:46:41.329Z,100265.34
2023-04-05T18:49:08.546Z,100264.41
2023-04-05T18:51:36.161Z,100271.25
2023-04-05T18:54:03.420Z,100275.59
2023-04-05T18:56:30.411Z,100279.00
2023-04-05T18:58:57.463Z,100278.09
2023-04-05T19:01:24.556Z,100269.41
2023-04-05T19:03:51.620Z,100274.50
2023-04-05T19:06:18.637Z,100274.47
2023-04-05T19:08:47.982Z,100274.41
2023-04-05T19:11:15.110Z,100279.50
2023-04-05T19:13:43.007Z,100278.56
2023-04-05T19:16:09.925Z,100278.53
2023-04-05T19:18:36.944Z,100271.59
2023-04-05T19:21:03.812Z,100274.13
2023-04-05T19:23:30.738Z,100276.69
2023-04-05T19:25:57.933Z,100278.44
2023-04-05T19:28:26.075Z,100278.38
2023-04-05T19:30:53.402Z,100279.09
2023-04-05T19:33:21.750Z,100275.69
2023-04-05T19:35:49.176Z,100285.06
2023-04-05T19:38:16.452Z,100276.34
2023-04-05T19:40:43.443Z,100282.28
2023-04-05T19:43:11.625Z,100287.38
2023-04-05T19:45:38.536Z,100295.00
2023-04-05T19:48:35.958Z,100291.53
2023-04-05T19:51:09.651Z,100292.34
2023-04-05T19:53:44.126Z,100297.44
2023-04-05T19:56:25.704Z,100295.63
2023-04-05T19:59:03.629Z,100292.88
2023-04-05T20:01:38.095Z,100293.69
2023-04-05T20:04:14.890Z,100298.72
2023-04-05T20:06:42.610Z,100288.25
2023-04-05T20:09:11.552Z,100291.69
2023-04-05T20:11:38.550Z,100298.63
2023-04-05T20:14:05.570Z,100302.00
2023-04-05T20:16:35.015Z,100298.50
2023-04-05T20:19:06.416Z,100302.69
2023-04-05T20:21:33.868Z,100304.44
2023-04-05T20:24:01.273Z,100309.44
2023-04-05T20:26:32.446Z,100307.72
2023-04-05T20:29:01.119Z,100313.56
2023-04-05T20:31:32.590Z,100310.84
2023-04-05T20:34:19.804Z,100309.94
2023-04-05T20:36:51.001Z,100313.34
2023-04-05T20:39:18.000Z,100319.28
2023-04-05T20:41:46.203Z,100317.38
2023-04-05T20:44:13.350Z,100317.28
2023-04-05T20:46:40.977Z,100318.97
2023-04-05T20:49:08.234Z,100319.78
2023-04-05T20:51:35.326Z,100325.78
2023-04-05T20:54:02.299Z,100322.38
2023-04-05T20:56:29.194Z,100330.09
2023-04-05T20:58:56.652Z,100320.56
2023-04-05T21:01:23.781Z,100324.00
2023-04-05T21:03:50.773Z,100328.06
2023-04-05T21:06:17.820Z,100328.81
2023-04-05T21:08:44.706Z,100335.47
2023-04-05T21:11:12.017Z,100332.78
2023-04-05T21:13:39.403Z,100336.06
2023-04-05T21:16:06.647Z,100343.69
2023-04-05T21:18:33.846Z,100341.06
2023-04-05T21:21:01.095Z,100341.81
2023-04-05T21:23:28.579Z,100347.69
2023-04-05T21:25:56.160Z,100342.53
2023-04-05T21:28:23.183Z,100347.78
2023-04-05T21:30:50.076Z,100345.97
2023-04-05T21:33:17.119Z,100350.91
2023-04-05T21:35:44.153Z,100351.03
2023-04-05T21:38:12.465Z,100351.03
2023-04-05T21:40:41.397Z,100361.28
2023-04-05T21:43:08.367Z,100355.06
2023-04-05T21:45:35.337Z,100361.75
2023-04-05T21:48:02.294Z,100356.53
2023-04-05T21:50:29.252Z,100354.56
2023-04-05T21:52:56.189Z,100349.28
2023-04-05T21:55:23.112Z,100352.69
2023-04-05T21:57:50.145Z,100349.91
2023-04-05T22:00:17.251Z,100354.88
2023-04-05T22:02:44.467Z,100356.66
2023-04-05T22:05:12.171Z,100355.81
2023-04-05T22:07:41.301Z,100354.06
2023-04-05T22:10:08.848Z,100352.31
2023-04-05T22:12:35.757Z,100354.91
2023-04-05T22:15:02.831Z,100357.38
2023-04-05T22:17:29.908Z,100356.19
2023-04-05T22:19:57.583Z,100358.59
2023-04-05T22:22:24.544Z,100360.16
2023-04-05T22:24:51.566Z,100359.22
2023-04-05T22:27:18.559Z,100354.97
2023-04-05T22:29:45.503Z,100353.41
2023-04-05T22:32:12.568Z,100351.72
2023-04-05T22:34:39.744Z,100352.50
2023-04-05T22:37:06.572Z,100350.66
2023-04-05T22:39:33.425Z,100356.56
2023-04-05T22:42:00.359Z,100357.38
2023-04-05T22:44:27.320Z,100358.13
2023-04-05T22:46:54.206Z,100351.34
2023-04-05T22:49:21.605Z,100354.69
2023-04-05T22:51:48.602Z,100352.31
2023-04-05T22:54:15.722Z,100353.25
2023-04-05T22:56:42.677Z,100354.06
2023-04-05T22:59:09.634Z,100352.22
2023-04-05T23:01:36.802Z,100355.66
2023-04-05T23:04:03.792Z,100352.09
2023-04-05T23:06:31.200Z,100346.63
2023-04-05T23:08:58.064Z,100347.22
2023-04-05T23:11:24.927Z,100354.94
2023-04-05T23:13:51.760Z,100349.88
2023-04-05T23:16:18.751Z,100350.72
2023-04-05T23:18:46.093Z,100355.84
2023-04-05T23:21:13.005Z,100356.69
2023-04-05T23:23:39.929Z,100354.97
2023-04-05T23:26:06.869Z,100359.88
2023-04-05T23:28:33.899Z,100357.31
2023-04-05T23:31:01.001Z,100352.19
2023-04-05T23:33:27.982Z,100347.03
2023-04-05T23:35:55.043Z,100348.50
2023-04-05T23:38:21.943Z,100353.53
2023-04-05T23:40:48.962Z,100347.28
2023-04-05T23:43:16.103Z,100349.78
2023-04-05T23:45:43.089Z,100347.94
2023-04-05T23:48:09.919Z,100342.69
2023-04-05T23:50:36.877Z,100352.03
2023-04-05T23:53:03.953Z,100352.22
2023-04-05T23:55:32.540Z,100344.59
2023-04-05T23:58:00.240Z,100363.97
